Time;durP1;ratioP1;P1;durP2;ratioP2;P2;SDS_P1;SDS_P2;PMS_P1;PMS_P2;Temp;Humidity;BMP_temperature;BMP_pressure;BME280_temperature;BME280_humidity;BME280_pressure;Samples;Min_cycle;Max_cycle;Signal;HPM_P1;HPM_P2
2021/07/15 00:00:22;;;;;;;40.70;20.07;;;17.90;99.90;;;;;;5013454;28;20193;-82
2021/07/15 00:02:48;;;;;;;41.57;20.50;;;17.90;99.90;;;;;;5012539;28;20556;-80
2021/07/15 00:05:16;;;;;;;43.37;21.13;;;17.90;99.90;;;;;;5012966;28;20192;-80
2021/07/15 00:07:42;;;;;;;55.47;21.93;;;17.80;99.90;;;;;;5011590;28;20204;-82
2021/07/15 00:10:12;;;;;;;51.03;22.40;;;17.70;99.90;;;;;;5013657;28;20223;-79
2021/07/15 00:12:41;;;;;;;51.37;24.07;;;17.70;99.90;;;;;;5013462;28;20216;-80
2021/07/15 00:15:08;;;;;;;42.13;22.33;;;17.70;99.90;;;;;;5009690;28;20235;-81
2021/07/15 00:17:33;;;;;;;47.07;23.83;;;17.70;99.90;;;;;;5012871;28;20638;-78
2021/07/15 00:19:59;;;;;;;47.20;22.60;;;17.70;99.90;;;;;;5012413;28;20180;-81
2021/07/15 00:22:31;;;;;;;53.80;22.87;;;17.70;99.90;;;;;;5013034;28;20221;-80
2021/07/15 00:24:59;;;;;;;51.47;23.80;;;17.60;99.90;;;;;;5012541;28;20246;-81
2021/07/15 00:27:25;;;;;;;50.27;24.53;;;17.60;99.90;;;;;;5014112;28;20557;-76
2021/07/15 00:29:50;;;;;;;51.63;23.63;;;17.60;99.90;;;;;;5010456;28;20684;-76
2021/07/15 00:32:16;;;;;;;57.00;25.63;;;17.70;99.90;;;;;;5011769;28;20175;-76
2021/07/15 00:34:41;;;;;;;66.43;26.47;;;17.80;99.90;;;;;;5013132;28;20730;-78
2021/07/15 00:37:07;;;;;;;64.23;26.43;;;17.80;99.90;;;;;;5013475;28;20514;-80
2021/07/15 00:39:33;;;;;;;58.70;26.80;;;17.80;99.90;;;;;;5012681;28;20230;-81
2021/07/15 00:41:58;;;;;;;64.70;26.03;;;17.80;99.90;;;;;;5014149;28;20209;-78
2021/07/15 00:44:24;;;;;;;56.63;25.77;;;17.80;99.90;;;;;;5012547;28;20186;-81
2021/07/15 00:46:50;;;;;;;57.47;27.00;;;18.00;99.90;;;;;;5010992;28;20214;-79
2021/07/15 00:49:15;;;;;;;52.83;23.60;;;17.80;99.90;;;;;;5011504;28;20261;-82
2021/07/15 00:51:41;;;;;;;62.17;26.23;;;17.70;99.90;;;;;;5012448;28;20178;-83
2021/07/15 00:54:07;;;;;;;56.07;26.40;;;17.60;99.90;;;;;;5012799;28;20177;-83
2021/07/15 00:56:32;;;;;;;64.70;25.97;;;17.50;99.90;;;;;;5012578;28;20182;-80
2021/07/15 00:58:58;;;;;;;55.87;26.17;;;17.50;99.90;;;;;;5009577;28;20175;-79
2021/07/15 01:01:24;;;;;;;67.40;26.70;;;17.50;99.90;;;;;;5009690;28;20202;-79
2021/07/15 01:03:51;;;;;;;63.73;27.73;;;17.50;99.90;;;;;;5009192;28;20184;-79
2021/07/15 01:06:17;;;;;;;60.73;27.30;;;17.50;99.90;;;;;;5011865;28;20641;-77
2021/07/15 01:08:45;;;;;;;67.87;29.07;;;17.60;99.90;;;;;;5013787;28;20205;-79
2021/07/15 01:11:35;;;;;;;64.47;28.93;;;17.60;99.90;;;;;;5003611;28;20186;-81
2021/07/15 01:14:11;;;;;;;60.70;27.80;;;17.70;99.90;;;;;;5010972;28;20171;-79
2021/07/15 01:17:02;;;;;;;63.63;27.87;;;17.70;99.90;;;;;;5008659;28;20248;-79
2021/07/15 01:19:37;;;;;;;64.73;27.13;;;17.70;99.90;;;;;;5002377;28;20670;-77
2021/07/15 01:22:14;;;;;;;62.43;26.83;;;17.80;99.90;;;;;;5012032;28;20188;-79
2021/07/15 01:25:17;;;;;;;54.10;25.00;;;17.80;99.90;;;;;;5012218;28;20187;-78
2021/07/15 01:27:55;;;;;;;56.20;25.47;;;17.80;99.90;;;;;;5006867;28;20167;-76
2021/07/15 01:30:26;;;;;;;53.37;24.97;;;17.80;99.90;;;;;;5011524;28;20212;-77
2021/07/15 01:33:04;;;;;;;57.73;25.33;;;17.80;99.90;;;;;;5011433;28;20168;-79
2021/07/15 01:35:57;;;;;;;58.73;24.87;;;17.80;99.90;;;;;;5008295;28;20286;-79
2021/07/15 01:38:25;;;;;;;56.27;25.37;;;17.80;99.90;;;;;;5011136;28;20179;-78
2021/07/15 01:41:23;;;;;;;50.80;24.60;;;17.80;99.90;;;;;;5011768;28;20286;-80
2021/07/15 01:43:53;;;;;;;55.13;24.23;;;17.90;99.90;;;;;;5005672;28;20192;-80
2021/07/15 01:46:19;;;;;;;55.00;23.37;;;17.90;99.90;;;;;;5010451;28;20677;-78
2021/07/15 01:48:46;;;;;;;57.97;24.27;;;17.90;99.90;;;;;;5011267;28;20211;-77
2021/07/15 01:51:12;;;;;;;52.13;23.40;;;18.00;99.90;;;;;;5008441;28;20190;-79
2021/07/15 01:53:38;;;;;;;56.77;23.53;;;18.00;99.90;;;;;;5010145;28;20181;-78
2021/07/15 01:56:05;;;;;;;57.43;24.37;;;18.00;99.90;;;;;;5010949;28;20176;-78
2021/07/15 01:58:34;;;;;;;57.33;25.23;;;18.00;99.90;;;;;;5010839;28;20252;-79
2021/07/15 02:01:01;;;;;;;64.20;24.17;;;18.00;99.90;;;;;;5007363;28;20222;-80
2021/07/15 02:03:28;;;;;;;66.00;23.90;;;18.00;99.90;;;;;;5009707;28;20183;-83
2021/07/15 02:05:55;;;;;;;60.77;24.50;;;18.00;99.90;;;;;;5008704;28;20230;-81
2021/07/15 02:08:23;;;;;;;55.70;23.20;;;18.10;99.90;;;;;;5012038;28;20260;-83
2021/07/15 02:10:50;;;;;;;55.67;24.70;;;18.00;99.90;;;;;;5010709;28;20197;-83
2021/07/15 02:13:16;;;;;;;64.17;24.57;;;18.00;99.90;;;;;;5007746;28;20207;-83
2021/07/15 02:15:44;;;;;;;65.60;24.90;;;18.00;99.90;;;;;;5010106;28;20198;-82
2021/07/15 02:18:16;;;;;;;60.43;25.33;;;18.00;99.90;;;;;;5010403;28;20184;-78
2021/07/15 02:20:43;;;;;;;59.63;26.03;;;18.00;99.90;;;;;;5011156;28;20184;-80
2021/07/15 02:23:10;;;;;;;65.73;26.00;;;18.10;99.90;;;;;;5010367;28;20179;-80
2021/07/15 02:25:37;;;;;;;75.70;25.17;;;18.10;99.90;;;;;;5009060;28;20175;-78
2021/07/15 02:28:05;;;;;;;68.57;27.40;;;18.10;99.90;;;;;;5009934;28;20635;-78
2021/07/15 02:30:31;;;;;;;65.43;25.50;;;18.00;99.90;;;;;;5009407;28;20211;-80
2021/07/15 02:33:01;;;;;;;69.73;26.60;;;17.90;99.90;;;;;;5008114;28;20178;-79
2021/07/15 02:35:31;;;;;;;56.53;23.83;;;17.90;99.90;;;;;;5009679;28;20227;-78
2021/07/15 02:37:58;;;;;;;58.83;24.53;;;17.80;99.90;;;;;;5010049;28;20703;-79
2021/07/15 02:40:24;;;;;;;55.33;23.47;;;17.70;99.90;;;;;;5002164;28;20892;-80
2021/07/15 02:42:50;;;;;;;51.27;20.63;;;17.70;99.90;;;;;;5009766;28;20189;-81
2021/07/15 02:45:18;;;;;;;50.10;22.50;;;17.60;99.90;;;;;;5009976;28;20588;-81
2021/07/15 02:47:46;;;;;;;53.97;22.23;;;17.70;99.90;;;;;;5009250;28;20201;-81
2021/07/15 02:50:14;;;;;;;59.80;23.93;;;17.60;99.90;;;;;;5008697;28;20548;-83
2021/07/15 02:52:41;;;;;;;71.67;24.40;;;17.60;99.90;;;;;;5009728;28;20181;-81
2021/07/15 02:55:09;;;;;;;61.67;26.17;;;17.50;99.90;;;;;;5008268;28;20186;-78
2021/07/15 02:57:51;;;;;;;57.03;26.83;;;17.50;99.90;;;;;;5009351;28;20186;-78
2021/07/15 03:00:17;;;;;;;58.83;24.60;;;17.60;99.90;;;;;;5008551;28;20724;-79
2021/07/15 03:03:15;;;;;;;56.93;24.77;;;17.60;99.90;;;;;;5008929;28;20199;-78
2021/07/15 03:06:07;;;;;;;58.07;25.00;;;17.60;99.90;;;;;;5009973;28;20275;-79
2021/07/15 03:08:38;;;;;;;61.57;25.43;;;17.60;99.90;;;;;;5007936;28;20673;-83
2021/07/15 03:11:05;;;;;;;57.70;23.83;;;17.50;99.90;;;;;;5007807;28;20559;-82
2021/07/15 03:13:31;;;;;;;55.83;25.10;;;17.60;99.90;;;;;;5009925;28;20178;-76
2021/07/15 03:15:57;;;;;;;63.70;25.20;;;17.60;99.90;;;;;;5009975;28;20209;-78
2021/07/15 03:18:27;;;;;;;62.10;25.53;;;17.70;99.90;;;;;;5009815;28;20182;-77
2021/07/15 03:20:54;;;;;;;54.43;25.23;;;17.70;99.90;;;;;;5008940;28;20278;-76
2021/07/15 03:23:21;;;;;;;61.13;25.57;;;17.80;99.90;;;;;;5009458;28;20181;-78
2021/07/15 03:25:50;;;;;;;58.20;24.57;;;17.70;99.90;;;;;;5010319;28;20249;-77
2021/07/15 03:28:18;;;;;;;60.23;24.67;;;17.70;99.90;;;;;;5008435;28;20220;-77
2021/07/15 03:30:45;;;;;;;50.77;25.13;;;17.60;99.90;;;;;;5007604;28;20706;-77
2021/07/15 03:33:13;;;;;;;51.37;24.13;;;17.60;99.90;;;;;;5007934;28;20176;-78
2021/07/15 03:35:41;;;;;;;62.60;25.07;;;17.70;99.90;;;;;;5010352;28;20195;-78
2021/07/15 03:38:08;;;;;;;53.50;24.27;;;17.70;99.90;;;;;;5007635;28;20217;-76
2021/07/15 03:40:35;;;;;;;64.87;24.23;;;17.70;99.90;;;;;;5010425;28;20175;-80
2021/07/15 03:43:08;;;;;;;57.23;23.60;;;17.70;99.90;;;;;;5009624;28;20588;-83
2021/07/15 03:45:34;;;;;;;63.80;24.23;;;17.80;99.90;;;;;;5007518;28;20178;-81
2021/07/15 03:48:01;;;;;;;57.47;25.47;;;17.70;99.90;;;;;;5011500;28;20688;-83
2021/07/15 03:50:32;;;;;;;53.40;25.17;;;17.60;99.90;;;;;;5011564;28;20585;-78
2021/07/15 03:53:02;;;;;;;63.70;25.50;;;17.70;99.90;;;;;;5013001;28;20178;-78
2021/07/15 03:55:31;;;;;;;60.63;25.50;;;17.80;99.90;;;;;;5014192;28;20217;-78
2021/07/15 03:58:01;;;;;;;51.10;23.13;;;17.70;99.90;;;;;;5011411;28;20171;-79
2021/07/15 04:00:27;;;;;;;50.90;23.87;;;17.80;99.90;;;;;;5011172;28;20264;-78
2021/07/15 04:02:58;;;;;;;62.67;25.40;;;17.70;99.90;;;;;;5013468;28;20238;-79
2021/07/15 04:05:27;;;;;;;62.13;24.83;;;17.80;99.90;;;;;;5013006;28;20198;-78
2021/07/15 04:07:55;;;;;;;54.10;24.80;;;17.80;99.90;;;;;;5012791;28;20213;-79
2021/07/15 04:10:21;;;;;;;60.27;23.73;;;17.80;99.90;;;;;;5013421;28;20218;-79
2021/07/15 04:12:47;;;;;;;59.63;24.27;;;17.80;99.90;;;;;;5012283;28;20178;-78
2021/07/15 04:15:17;;;;;;;53.30;23.50;;;17.90;99.90;;;;;;5013155;28;20186;-79
2021/07/15 04:17:55;;;;;;;59.53;25.20;;;17.80;99.90;;;;;;5013564;28;20382;-79
2021/07/15 04:20:23;;;;;;;56.10;24.97;;;17.70;99.90;;;;;;5012755;28;20190;-78
2021/07/15 04:22:51;;;;;;;61.30;25.80;;;17.70;99.90;;;;;;5011756;28;20191;-79
2021/07/15 04:25:20;;;;;;;51.13;25.57;;;17.60;99.90;;;;;;5012799;28;20201;-78
2021/07/15 04:27:49;;;;;;;52.87;23.60;;;17.60;99.90;;;;;;5013269;28;20194;-79
2021/07/15 04:30:15;;;;;;;58.83;23.80;;;17.70;99.90;;;;;;5012468;28;20689;-83
2021/07/15 04:32:48;;;;;;;51.33;24.03;;;17.60;99.90;;;;;;5011277;28;20175;-79
2021/07/15 04:35:14;;;;;;;51.87;22.93;;;17.60;99.90;;;;;;5011916;28;20214;-79
2021/07/15 04:37:45;;;;;;;57.87;25.03;;;17.50;99.90;;;;;;5011422;28;20204;-84
2021/07/15 04:40:16;;;;;;;46.03;22.77;;;17.60;99.90;;;;;;5010792;28;20201;-80
2021/07/15 04:42:42;;;;;;;48.03;23.57;;;17.60;99.90;;;;;;5012731;28;20181;-84
2021/07/15 04:45:11;;;;;;;49.67;21.27;;;17.60;99.90;;;;;;5012294;28;20177;-83
2021/07/15 04:47:40;;;;;;;53.00;22.73;;;17.50;99.90;;;;;;5009498;28;20178;-82
2021/07/15 04:50:17;;;;;;;52.73;24.20;;;17.50;99.90;;;;;;5011970;28;20223;-78
2021/07/15 04:52:45;;;;;;;49.00;22.47;;;17.50;99.90;;;;;;5012309;28;20194;-80
2021/07/15 04:55:12;;;;;;;53.10;22.60;;;17.60;99.90;;;;;;5005734;28;20313;-82
2021/07/15 04:57:38;;;;;;;44.57;22.47;;;17.70;99.90;;;;;;5013009;28;20236;-78
2021/07/15 05:00:11;;;;;;;54.23;23.37;;;17.80;99.90;;;;;;5007172;28;20179;-82
2021/07/15 05:02:37;;;;;;;53.37;23.63;;;17.80;99.90;;;;;;5010713;28;20261;-83
2021/07/15 05:05:07;;;;;;;48.10;22.87;;;17.80;99.90;;;;;;5012425;28;20178;-84
2021/07/15 05:07:34;;;;;;;49.07;23.00;;;17.80;99.90;;;;;;5011782;28;20698;-84
2021/07/15 05:10:00;;;;;;;48.97;23.07;;;17.90;99.90;;;;;;5012654;28;20264;-83
2021/07/15 05:12:25;;;;;;;53.50;23.47;;;17.90;99.90;;;;;;5004758;28;20182;-83
2021/07/15 05:14:52;;;;;;;45.93;23.47;;;17.90;99.90;;;;;;5009735;28;20178;-77
2021/07/15 05:17:18;;;;;;;53.93;24.13;;;17.90;99.90;;;;;;5007797;28;20185;-83
2021/07/15 05:19:44;;;;;;;59.80;24.17;;;17.90;99.90;;;;;;5011679;28;20207;-81
2021/07/15 05:22:10;;;;;;;53.87;23.80;;;17.90;99.90;;;;;;5010526;28;20694;-82
2021/07/15 05:24:36;;;;;;;55.83;25.53;;;17.80;99.90;;;;;;5012855;28;20275;-80
2021/07/15 05:27:02;;;;;;;57.40;24.53;;;17.90;99.90;;;;;;5010179;28;20190;-78
2021/07/15 05:29:28;;;;;;;46.53;22.53;;;17.80;99.90;;;;;;5010828;28;20684;-79
2021/07/15 05:31:54;;;;;;;48.90;24.80;;;17.70;99.90;;;;;;5009320;28;20187;-82
2021/07/15 05:34:20;;;;;;;57.50;23.93;;;17.60;99.90;;;;;;5013125;28;20508;-84
2021/07/15 05:36:46;;;;;;;51.07;23.57;;;17.60;99.90;;;;;;5011637;28;20274;-82
2021/07/15 05:39:13;;;;;;;60.40;24.50;;;17.60;99.90;;;;;;5011297;28;20285;-82
2021/07/15 05:41:38;;;;;;;48.43;24.33;;;17.70;99.90;;;;;;5008812;28;20194;-80
2021/07/15 05:44:04;;;;;;;51.23;23.60;;;17.70;99.90;;;;;;5010932;28;20392;-78
2021/07/15 05:46:30;;;;;;;49.40;23.53;;;17.70;99.90;;;;;;5009793;28;20268;-77
2021/07/15 05:48:55;;;;;;;47.87;21.97;;;17.80;99.90;;;;;;5010740;28;20566;-80
2021/07/15 05:51:21;;;;;;;47.07;23.07;;;17.80;99.90;;;;;;5010605;28;20663;-79
2021/07/15 05:53:46;;;;;;;42.80;22.03;;;17.90;99.90;;;;;;5010229;28;20179;-79
2021/07/15 05:56:12;;;;;;;48.20;21.13;;;17.80;99.90;;;;;;5011853;28;20174;-78
2021/07/15 05:58:37;;;;;;;42.90;21.43;;;17.80;99.90;;;;;;5010244;28;20624;-81
2021/07/15 06:01:03;;;;;;;40.53;20.53;;;17.70;99.90;;;;;;5006846;28;20198;-78
2021/07/15 06:03:29;;;;;;;43.73;20.50;;;17.60;99.90;;;;;;5008714;28;20186;-82
2021/07/15 06:05:54;;;;;;;51.27;21.77;;;17.50;99.90;;;;;;5009916;28;20293;-81
2021/07/15 06:08:20;;;;;;;38.30;20.97;;;17.50;99.90;;;;;;5010740;28;20170;-82
2021/07/15 06:10:45;;;;;;;49.73;21.90;;;17.50;99.90;;;;;;5007570;28;20259;-80
2021/07/15 06:13:13;;;;;;;49.67;23.10;;;17.50;99.90;;;;;;5011653;28;20229;-82
2021/07/15 06:15:40;;;;;;;46.40;22.23;;;17.50;99.90;;;;;;5011732;28;20678;-78
2021/07/15 06:18:06;;;;;;;44.67;22.10;;;17.50;99.90;;;;;;5011281;28;20180;-78
2021/07/15 06:20:32;;;;;;;57.03;23.27;;;17.50;99.90;;;;;;5009555;28;20186;-80
2021/07/15 06:22:57;;;;;;;47.57;21.93;;;17.60;99.90;;;;;;5011583;28;20671;-79
2021/07/15 06:25:25;;;;;;;49.70;21.77;;;17.60;99.90;;;;;;5010851;28;20170;-82
2021/07/15 06:27:52;;;;;;;47.90;21.73;;;17.70;99.90;;;;;;5011214;28;20173;-81
2021/07/15 06:30:18;;;;;;;58.10;21.30;;;17.80;99.90;;;;;;5010970;28;20218;-83
2021/07/15 06:32:43;;;;;;;50.93;21.53;;;17.80;99.90;;;;;;5009515;28;20523;-82
2021/07/15 06:35:09;;;;;;;52.77;21.67;;;17.80;99.90;;;;;;5008102;28;20233;-82
2021/07/15 06:37:39;;;;;;;49.93;20.93;;;17.80;99.90;;;;;;4999604;28;20270;-80
2021/07/15 06:40:07;;;;;;;48.77;21.70;;;17.90;99.90;;;;;;5000942;28;20179;-82
2021/07/15 06:42:33;;;;;;;47.50;21.17;;;17.80;99.90;;;;;;5003995;28;20553;-82
2021/07/15 06:44:59;;;;;;;49.20;21.20;;;17.90;99.90;;;;;;5009878;28;20232;-81
2021/07/15 06:47:25;;;;;;;47.37;20.63;;;17.80;99.90;;;;;;5011751;28;20650;-78
2021/07/15 06:49:51;;;;;;;43.70;21.20;;;17.80;99.90;;;;;;5004505;28;20206;-78
2021/07/15 06:52:16;;;;;;;43.40;20.70;;;17.80;99.90;;;;;;5008137;28;20252;-80
2021/07/15 06:54:42;;;;;;;46.60;22.03;;;17.80;99.90;;;;;;4999983;28;20234;-80
2021/07/15 06:57:08;;;;;;;46.13;23.40;;;17.70;99.90;;;;;;5005586;28;20174;-78
2021/07/15 06:59:34;;;;;;;51.70;24.40;;;17.70;99.90;;;;;;5008890;28;20179;-78
2021/07/15 07:01:59;;;;;;;57.00;25.57;;;17.70;99.90;;;;;;5008795;28;20253;-78
2021/07/15 07:04:25;;;;;;;48.70;24.37;;;17.60;99.90;;;;;;5004390;28;20214;-79
2021/07/15 07:06:50;;;;;;;59.57;25.03;;;17.80;99.90;;;;;;5005980;28;20197;-81
2021/07/15 07:09:16;;;;;;;58.20;25.17;;;17.90;99.90;;;;;;5004625;28;20706;-81
2021/07/15 07:11:43;;;;;;;59.20;26.77;;;17.90;99.90;;;;;;5009815;28;20182;-81
2021/07/15 07:14:08;;;;;;;60.83;25.70;;;17.70;99.90;;;;;;5007356;28;20178;-83
2021/07/15 07:16:34;;;;;;;64.17;26.50;;;17.70;99.90;;;;;;5009284;28;20243;-81
2021/07/15 07:19:00;;;;;;;61.10;26.50;;;17.70;99.90;;;;;;5009223;28;20247;-82
2021/07/15 07:21:25;;;;;;;65.93;27.50;;;17.70;99.90;;;;;;5009456;28;20183;-81
2021/07/15 07:23:51;;;;;;;71.07;27.03;;;17.70;99.90;;;;;;5009746;28;20181;-81
2021/07/15 07:26:16;;;;;;;65.20;25.37;;;17.60;99.90;;;;;;5008462;28;20257;-79
2021/07/15 07:28:42;;;;;;;48.77;22.73;;;17.60;99.90;;;;;;5013389;28;20205;-82
2021/07/15 07:31:08;;;;;;;54.27;24.70;;;17.70;99.90;;;;;;5012255;28;20198;-81
2021/07/15 07:33:33;;;;;;;49.17;22.70;;;17.70;99.90;;;;;;5010311;28;20325;-83
2021/07/15 07:35:59;;;;;;;55.23;24.23;;;17.60;99.90;;;;;;5009623;28;20923;-78
2021/07/15 07:38:24;;;;;;;47.00;22.93;;;17.50;99.90;;;;;;5008000;28;20190;-82
2021/07/15 07:40:50;;;;;;;52.07;22.57;;;17.60;99.90;;;;;;5008941;28;20178;-82
2021/07/15 07:43:16;;;;;;;47.70;22.50;;;17.70;99.90;;;;;;5012043;28;20708;-83
2021/07/15 07:45:41;;;;;;;54.07;24.50;;;17.70;99.90;;;;;;5012712;28;20261;-83
2021/07/15 07:48:08;;;;;;;51.63;24.33;;;17.80;99.90;;;;;;5010421;28;20250;-80
2021/07/15 07:50:34;;;;;;;56.83;25.27;;;17.80;99.90;;;;;;5012871;28;20303;-78
2021/07/15 07:52:59;;;;;;;54.43;25.17;;;17.80;99.90;;;;;;5007404;28;20173;-84
2021/07/15 07:55:25;;;;;;;52.57;24.30;;;17.90;99.90;;;;;;5009964;28;20181;-84
2021/07/15 07:57:51;;;;;;;53.00;24.17;;;17.90;99.90;;;;;;5013369;28;20175;-83
2021/07/15 08:00:25;;;;;;;47.60;22.90;;;17.80;99.90;;;;;;5011417;28;20241;-90
2021/07/15 08:03:02;;;;;;;44.57;22.30;;;17.80;99.90;;;;;;5015601;28;20651;-90
2021/07/15 08:05:28;;;;;;;53.67;22.07;;;17.80;99.90;;;;;;5015572;28;20194;-92
2021/07/15 08:07:55;;;;;;;43.70;21.73;;;17.80;99.90;;;;;;5015682;28;20172;-92
2021/07/15 08:10:21;;;;;;;50.50;21.73;;;17.90;99.90;;;;;;5014450;28;20216;-90
2021/07/15 08:12:51;;;;;;;44.03;21.30;;;17.90;99.90;;;;;;5015432;28;20274;-91
2021/07/15 08:15:17;;;;;;;44.77;21.40;;;17.80;99.90;;;;;;5015724;28;20178;-91
2021/07/15 08:17:43;;;;;;;42.30;20.63;;;17.90;99.90;;;;;;5015840;28;20177;-90
2021/07/15 08:20:10;;;;;;;53.17;22.80;;;17.90;99.90;;;;;;5016128;28;20171;-91
2021/07/15 08:22:35;;;;;;;47.97;20.90;;;18.10;99.90;;;;;;5002211;28;20237;-90
2021/07/15 08:25:02;;;;;;;42.33;21.17;;;18.10;99.90;;;;;;4995814;28;20584;-91
2021/07/15 08:27:28;;;;;;;46.53;20.73;;;18.10;99.90;;;;;;4996004;28;20542;-91
2021/07/15 08:29:54;;;;;;;44.23;21.10;;;18.10;99.90;;;;;;4994894;28;20213;-91
2021/07/15 08:32:21;;;;;;;57.43;21.70;;;18.10;99.90;;;;;;4997388;28;20181;-92
2021/07/15 08:34:46;;;;;;;48.67;22.13;;;18.10;99.90;;;;;;5015528;28;20191;-91
2021/07/15 08:37:12;;;;;;;36.33;21.60;;;18.10;99.90;;;;;;5015179;28;20206;-91
2021/07/15 08:39:39;;;;;;;51.73;22.07;;;18.20;99.90;;;;;;5015245;28;20198;-92
2021/07/15 08:42:08;;;;;;;51.30;23.27;;;18.20;99.90;;;;;;5014649;28;20512;-92
2021/07/15 08:44:36;;;;;;;45.53;20.73;;;18.30;99.90;;;;;;5013854;28;20195;-91
2021/07/15 08:47:04;;;;;;;48.67;21.60;;;18.20;99.90;;;;;;5014039;28;20241;-90
2021/07/15 08:49:29;;;;;;;45.90;21.33;;;18.20;99.90;;;;;;5012246;28;20656;-90
2021/07/15 08:51:55;;;;;;;45.27;20.87;;;18.20;99.90;;;;;;5016802;28;20172;-90
2021/07/15 08:54:28;;;;;;;44.47;19.93;;;18.20;99.90;;;;;;5012806;28;20171;-89
2021/07/15 08:56:54;;;;;;;47.13;21.47;;;18.20;99.90;;;;;;5010827;28;20172;-89
2021/07/15 08:59:21;;;;;;;45.57;20.43;;;18.30;99.90;;;;;;5014144;28;20178;-89
2021/07/15 09:01:50;;;;;;;46.43;20.73;;;18.20;99.90;;;;;;5013838;28;20199;-87
2021/07/15 09:04:20;;;;;;;35.63;19.33;;;18.30;99.90;;;;;;5013416;28;20631;-88
2021/07/15 09:06:46;;;;;;;41.77;20.57;;;18.30;99.90;;;;;;5013860;28;20647;-88
2021/07/15 09:09:12;;;;;;;32.33;18.90;;;18.40;99.90;;;;;;5013600;28;20543;-89
2021/07/15 09:11:39;;;;;;;41.33;19.10;;;18.30;99.90;;;;;;5013914;28;20184;-89
2021/07/15 09:14:22;;;;;;;32.00;17.47;;;18.40;99.90;;;;;;5014583;28;20648;-89
2021/07/15 09:16:57;;;;;;;34.43;18.10;;;18.20;99.90;;;;;;5014308;28;20655;-88
2021/07/15 09:19:24;;;;;;;57.13;20.93;;;18.20;99.90;;;;;;5014594;28;20167;-88
2021/07/15 09:21:51;;;;;;;31.93;18.83;;;18.10;99.90;;;;;;5013673;28;20205;-89
2021/07/15 09:24:34;;;;;;;49.57;20.80;;;18.00;99.90;;;;;;5013808;28;20172;-89
2021/07/15 09:27:16;;;;;;;37.53;19.87;;;18.00;99.90;;;;;;5013462;28;20644;-89
2021/07/15 09:29:43;;;;;;;46.07;21.67;;;17.90;99.90;;;;;;5007078;28;20229;-87
2021/07/15 09:32:16;;;;;;;42.00;22.40;;;17.70;99.90;;;;;;5015099;28;20175;-91
2021/07/15 09:34:43;;;;;;;49.13;22.77;;;17.70;99.90;;;;;;5013146;28;20190;-89
2021/07/15 09:37:17;;;;;;;48.23;23.57;;;17.60;99.90;;;;;;5013901;28;20182;-88
2021/07/15 09:39:48;;;;;;;49.57;23.53;;;17.60;99.90;;;;;;5013688;28;20163;-88
2021/07/15 09:42:20;;;;;;;59.20;24.53;;;17.50;99.90;;;;;;5014592;28;20198;-93
2021/07/15 09:45:03;;;;;;;56.30;26.03;;;17.50;99.90;;;;;;5014830;28;20180;-93
2021/07/15 09:48:07;;;;;;;47.73;24.53;;;17.50;99.90;;;;;;5015127;28;20210;-92
2021/07/15 09:50:33;;;;;;;49.50;24.37;;;17.60;99.90;;;;;;5012353;28;20592;-92
2021/07/15 09:53:28;;;;;;;52.30;26.50;;;17.70;99.90;;;;;;5013851;28;20265;-92
2021/07/15 09:56:04;;;;;;;51.93;26.83;;;17.70;99.90;;;;;;5005675;28;20170;-92
2021/07/15 09:58:37;;;;;;;55.40;26.37;;;17.70;99.90;;;;;;5013987;28;20203;-90
2021/07/15 10:01:07;;;;;;;48.27;25.50;;;17.80;99.90;;;;;;5012939;28;20205;-91
2021/07/15 10:03:35;;;;;;;53.90;27.40;;;17.80;99.90;;;;;;5013680;28;20185;-92
2021/07/15 10:06:04;;;;;;;58.60;28.03;;;17.80;99.90;;;;;;5013729;28;20179;-92
2021/07/15 10:08:31;;;;;;;56.33;28.33;;;17.90;99.90;;;;;;5013914;28;20222;-90
2021/07/15 10:11:26;;;;;;;63.83;27.77;;;17.90;99.90;;;;;;5012846;28;20636;-90
2021/07/15 10:14:09;;;;;;;57.43;28.60;;;17.90;99.90;;;;;;5012917;28;20175;-89
2021/07/15 10:16:41;;;;;;;62.77;29.70;;;17.90;99.90;;;;;;5013385;28;20264;-89
2021/07/15 10:19:09;;;;;;;56.50;30.47;;;17.80;99.90;;;;;;5013649;28;20176;-89
2021/07/15 10:21:36;;;;;;;58.63;31.40;;;17.90;99.90;;;;;;5013045;28;20233;-91
2021/07/15 10:24:21;;;;;;;55.53;31.47;;;18.00;99.90;;;;;;5012837;28;20179;-91
2021/07/15 10:26:49;;;;;;;62.87;30.53;;;18.00;99.90;;;;;;5013520;28;20192;-91
2021/07/15 10:29:16;;;;;;;68.70;30.87;;;18.00;99.90;;;;;;5012393;28;20671;-91
2021/07/15 10:31:42;;;;;;;73.97;30.80;;;18.00;99.90;;;;;;5012115;28;20267;-89
2021/07/15 10:34:10;;;;;;;64.27;30.57;;;17.80;99.90;;;;;;5012473;28;20194;-89
2021/07/15 10:36:37;;;;;;;55.03;29.90;;;17.80;99.90;;;;;;5012637;28;20193;-89
2021/07/15 10:39:06;;;;;;;66.13;30.83;;;17.80;99.90;;;;;;5013084;28;20546;-90
2021/07/15 10:41:33;;;;;;;59.87;32.00;;;17.80;99.90;;;;;;5013068;28;20170;-90
2021/07/15 10:43:58;;;;;;;57.33;30.17;;;17.80;99.90;;;;;;4997620;28;20182;-90
2021/07/15 10:46:25;;;;;;;55.63;29.10;;;17.90;99.90;;;;;;4993830;28;20172;-90
2021/07/15 10:48:51;;;;;;;55.90;28.90;;;17.90;99.90;;;;;;4993226;28;20200;-91
2021/07/15 10:51:19;;;;;;;52.50;29.07;;;17.90;99.90;;;;;;4995900;28;20172;-91
2021/07/15 10:53:45;;;;;;;52.90;29.43;;;17.90;99.90;;;;;;5011855;28;20206;-92
2021/07/15 10:56:17;;;;;;;62.67;30.63;;;17.90;99.90;;;;;;5013014;28;20184;-91
2021/07/15 10:58:54;;;;;;;54.77;30.30;;;17.90;99.90;;;;;;5012801;28;20253;-90
2021/07/15 11:01:41;;;;;;;53.73;28.83;;;18.00;99.90;;;;;;5012837;28;20194;-90
2021/07/15 11:04:07;;;;;;;59.60;29.17;;;18.00;99.90;;;;;;5011513;28;20552;-90
2021/07/15 11:06:41;;;;;;;55.10;29.87;;;18.00;99.90;;;;;;5012664;28;20202;-92
2021/07/15 11:09:11;;;;;;;54.93;31.17;;;18.00;99.90;;;;;;5003178;28;20683;-92
2021/07/15 11:11:40;;;;;;;59.60;31.50;;;18.00;99.90;;;;;;5007424;28;20172;-91
2021/07/15 11:14:26;;;;;;;59.40;30.97;;;18.00;99.90;;;;;;5006361;28;20177;-91
2021/07/15 11:16:53;;;;;;;59.40;30.60;;;18.00;99.90;;;;;;5012617;28;20189;-91
2021/07/15 11:19:47;;;;;;;63.57;30.37;;;18.00;99.90;;;;;;5012699;28;20179;-90
2021/07/15 11:22:45;;;;;;;59.23;30.40;;;17.90;99.90;;;;;;5010179;28;20191;-90
2021/07/15 11:25:42;;;;;;;61.07;30.30;;;17.80;99.90;;;;;;5012594;28;20201;-91
2021/07/15 11:28:12;;;;;;;61.10;31.67;;;17.80;99.90;;;;;;4991323;28;20191;-92
2021/07/15 11:30:44;;;;;;;62.13;30.67;;;18.00;99.90;;;;;;5012186;28;20212;-92
2021/07/15 11:33:21;;;;;;;67.67;32.00;;;18.00;99.90;;;;;;5012394;28;20195;-92
2021/07/15 11:36:07;;;;;;;65.37;31.80;;;18.00;99.90;;;;;;5012334;28;20554;-91
2021/07/15 11:38:54;;;;;;;64.30;31.43;;;18.00;99.90;;;;;;5012948;28;20206;-90
2021/07/15 11:41:20;;;;;;;75.57;32.87;;;18.00;99.90;;;;;;5012798;28;20209;-89
2021/07/15 11:43:56;;;;;;;64.97;31.37;;;17.90;99.90;;;;;;5012371;28;20194;-90
2021/07/15 11:46:35;;;;;;;62.00;30.67;;;17.80;99.90;;;;;;5012267;28;20166;-89
2021/07/15 11:49:06;;;;;;;66.57;32.47;;;17.60;99.90;;;;;;5011835;28;20202;-89
2021/07/15 11:51:37;;;;;;;68.33;32.10;;;17.30;99.90;;;;;;5012459;28;20176;-89
2021/07/15 11:54:33;;;;;;;61.20;31.90;;;17.30;99.90;;;;;;5011916;28;20221;-91
2021/07/15 11:56:59;;;;;;;61.37;32.33;;;17.40;99.90;;;;;;5010787;28;20176;-92
2021/07/15 11:59:33;;;;;;;61.60;33.00;;;17.40;99.90;;;;;;5011369;28;20234;-91
2021/07/15 12:02:03;;;;;;;67.17;33.03;;;17.50;99.90;;;;;;5010815;28;20204;-91
2021/07/15 12:05:07;;;;;;;59.63;33.13;;;17.50;99.90;;;;;;5013588;28;20178;-92
2021/07/15 12:07:34;;;;;;;64.53;33.60;;;17.50;99.90;;;;;;5014437;28;20186;-92
2021/07/15 12:10:03;;;;;;;64.37;32.63;;;17.60;99.90;;;;;;5014289;28;20204;-93
2021/07/15 12:12:30;;;;;;;59.40;32.63;;;17.70;99.90;;;;;;5015594;28;20537;-93
2021/07/15 12:14:58;;;;;;;69.70;32.70;;;17.70;99.90;;;;;;5015498;28;20545;-93
2021/07/15 12:17:28;;;;;;;62.50;31.70;;;17.80;99.90;;;;;;5016398;28;20237;-92
2021/07/15 12:19:56;;;;;;;58.93;30.30;;;17.80;99.90;;;;;;5015972;28;20163;-89
2021/07/15 12:22:22;;;;;;;65.13;31.77;;;17.90;99.90;;;;;;5015039;28;20180;-91
2021/07/15 12:24:52;;;;;;;60.70;30.73;;;17.80;99.90;;;;;;5014489;28;20185;-90
2021/07/15 12:27:21;;;;;;;62.17;31.60;;;17.80;99.90;;;;;;5014852;28;20177;-91
2021/07/15 12:29:59;;;;;;;64.77;31.53;;;17.70;99.90;;;;;;5010233;28;20276;-92
2021/07/15 12:32:28;;;;;;;62.70;30.73;;;17.70;99.90;;;;;;5014814;28;20185;-93
2021/07/15 12:34:53;;;;;;;59.13;31.37;;;17.70;99.90;;;;;;5014130;28;20179;-93
2021/07/15 12:37:19;;;;;;;60.97;32.37;;;17.80;99.90;;;;;;5015602;28;20206;-93
2021/07/15 12:39:58;;;;;;;55.53;31.10;;;17.80;99.90;;;;;;5013829;28;20194;-93